sensor_id;sensor_type;location;lat;lon;timestamp;P1;durP1;ratioP1;P2;durP2;ratioP2
74483;SDS011;62942;52.462;10.846;2022-12-08T00:00:52;21;;;32.2;;
74483;SDS011;62942;52.462;10.846;2022-12-08T00:01:52;22;;;33.8;;
74483;SDS011;62942;52.462;10.846;2022-12-08T00:02:52;21.9;;;32.7;;
74483;SDS011;62942;52.462;10.846;2022-12-08T00:04:02;21;;;31.7;;
74483;SDS011;62942;52.462;10.846;2022-12-08T00:05:02;20.4;;;31.4;;
74483;SDS011;62942;52.462;10.846;2022-12-08T00:06:14;20.1;;;30.7;;
74483;SDS011;62942;52.462;10.846;2022-12-08T00:07:22;19.9;;;29.5;;
74483;SDS011;62942;52.462;10.846;2022-12-08T00:08:32;20.1;;;30.5;;
74483;SDS011;62942;52.462;10.846;2022-12-08T00:09:32;20.9;;;31.9;;
74483;SDS011;62942;52.462;10.846;2022-12-08T00:10:42;20.5;;;30.5;;
74483;SDS011;62942;52.462;10.846;2022-12-08T00:11:42;20.6;;;31.3;;
74483;SDS011;62942;52.462;10.846;2022-12-08T00:12:52;19.5;;;30.9;;
74483;SDS011;62942;52.462;10.846;2022-12-08T00:13:52;20;;;30.7;;
74483;SDS011;62942;52.462;10.846;2022-12-08T00:15:02;20.1;;;29.7;;
74483;SDS011;62942;52.462;10.846;2022-12-08T00:16:12;23.8;;;36.2;;
74483;SDS011;62942;52.462;10.846;2022-12-08T00:17:22;25.3;;;40.3;;
74483;SDS011;62942;52.462;10.846;2022-12-08T00:18:22;25.7;;;39.4;;
74483;SDS011;62942;52.462;10.846;2022-12-08T00:19:32;24.4;;;37.7;;
74483;SDS011;62942;52.462;10.846;2022-12-08T00:20:32;24.1;;;39.5;;
74483;SDS011;62942;52.462;10.846;2022-12-08T00:21:42;25;;;36.7;;
74483;SDS011;62942;52.462;10.846;2022-12-08T00:22:52;24.3;;;36.1;;
74483;SDS011;62942;52.462;10.846;2022-12-08T00:24:02;21.4;;;32.1;;
74483;SDS011;62942;52.462;10.846;2022-12-08T00:25:02;20.2;;;30.5;;
74483;SDS011;62942;52.462;10.846;2022-12-08T00:26:12;19.1;;;28.5;;
74483;SDS011;62942;52.462;10.846;2022-12-08T00:27:13;18.1;;;26.6;;
74483;SDS011;62942;52.462;10.846;2022-12-08T00:28:12;18.3;;;27.7;;
74483;SDS011;62942;52.462;10.846;2022-12-08T00:29:12;18;;;28.2;;
74483;SDS011;62942;52.462;10.846;2022-12-08T00:30:12;18;;;27.6;;
74483;SDS011;62942;52.462;10.846;2022-12-08T00:31:12;16.5;;;23.6;;
74483;SDS011;62942;52.462;10.846;2022-12-08T00:32:22;16;;;24.8;;
74483;SDS011;62942;52.462;10.846;2022-12-08T00:33:22;15.3;;;22.1;;
74483;SDS011;62942;52.462;10.846;2022-12-08T00:34:32;15.1;;;21.4;;
74483;SDS011;62942;52.462;10.846;2022-12-08T00:35:42;15.8;;;24.2;;
74483;SDS011;62942;52.462;10.846;2022-12-08T00:36:52;15.9;;;24.3;;
74483;SDS011;62942;52.462;10.846;2022-12-08T00:38:02;15.7;;;22.8;;
74483;SDS011;62942;52.462;10.846;2022-12-08T00:39:12;16.2;;;22.9;;
74483;SDS011;62942;52.462;10.846;2022-12-08T00:40:22;16.5;;;22.7;;
74483;SDS011;62942;52.462;10.846;2022-12-08T00:41:32;16.6;;;26.4;;
74483;SDS011;62942;52.462;10.846;2022-12-08T00:42:42;16.4;;;23.6;;
74483;SDS011;62942;52.462;10.846;2022-12-08T00:43:42;17.1;;;24.9;;
74483;SDS011;62942;52.462;10.846;2022-12-08T00:44:52;16.7;;;25.2;;
74483;SDS011;62942;52.462;10.846;2022-12-08T00:45:52;17;;;25.4;;
74483;SDS011;62942;52.462;10.846;2022-12-08T00:46:52;16.9;;;24.3;;
74483;SDS011;62942;52.462;10.846;2022-12-08T00:48:02;17.7;;;26.3;;
74483;SDS011;62942;52.462;10.846;2022-12-08T00:49:02;17.5;;;26.1;;
74483;SDS011;62942;52.462;10.846;2022-12-08T00:50:12;17.8;;;25.1;;
74483;SDS011;62942;52.462;10.846;2022-12-08T00:51:12;17.6;;;25.1;;
74483;SDS011;62942;52.462;10.846;2022-12-08T00:52:23;20.5;;;30.8;;
74483;SDS011;62942;52.462;10.846;2022-12-08T00:53:32;22.3;;;32.8;;
74483;SDS011;62942;52.462;10.846;2022-12-08T00:54:42;22.8;;;33.4;;
74483;SDS011;62942;52.462;10.846;2022-12-08T00:55:52;22.9;;;33.8;;
74483;SDS011;62942;52.462;10.846;2022-12-08T00:57:02;21.6;;;31.1;;
74483;SDS011;62942;52.462;10.846;2022-12-08T00:58:12;21.1;;;30.2;;
74483;SDS011;62942;52.462;10.846;2022-12-08T00:59:12;20;;;27.9;;
74483;SDS011;62942;52.462;10.846;2022-12-08T01:00:22;20.1;;;27.7;;
74483;SDS011;62942;52.462;10.846;2022-12-08T01:01:22;20;;;29.3;;
74483;SDS011;62942;52.462;10.846;2022-12-08T01:02:22;19.8;;;29.3;;
74483;SDS011;62942;52.462;10.846;2022-12-08T01:03:32;19.1;;;27.6;;
74483;SDS011;62942;52.462;10.846;2022-12-08T01:04:42;18.3;;;26.5;;
74483;SDS011;62942;52.462;10.846;2022-12-08T01:05:42;17.7;;;24.3;;
74483;SDS011;62942;52.462;10.846;2022-12-08T01:06:52;17.5;;;23.2;;
74483;SDS011;62942;52.462;10.846;2022-12-08T01:08:03;17.2;;;23.8;;
74483;SDS011;62942;52.462;10.846;2022-12-08T01:09:02;17.2;;;23.6;;
74483;SDS011;62942;52.462;10.846;2022-12-08T01:10:02;17.4;;;24.9;;
74483;SDS011;62942;52.462;10.846;2022-12-08T01:11:13;17.2;;;24.6;;
74483;SDS011;62942;52.462;10.846;2022-12-08T01:12:22;17.3;;;25.2;;
74483;SDS011;62942;52.462;10.846;2022-12-08T01:13:32;16.5;;;21.4;;
74483;SDS011;62942;52.462;10.846;2022-12-08T01:14:42;16.9;;;23.7;;
74483;SDS011;62942;52.462;10.846;2022-12-08T01:15:52;17.2;;;23.8;;
74483;SDS011;62942;52.462;10.846;2022-12-08T01:16:52;17;;;23.3;;
74483;SDS011;62942;52.462;10.846;2022-12-08T01:17:52;16.7;;;22.7;;
74483;SDS011;62942;52.462;10.846;2022-12-08T01:19:02;16.6;;;23.7;;
74483;SDS011;62942;52.462;10.846;2022-12-08T01:20:02;16.5;;;24.2;;
74483;SDS011;62942;52.462;10.846;2022-12-08T01:21:12;16.8;;;23.5;;
74483;SDS011;62942;52.462;10.846;2022-12-08T01:22:12;17.2;;;24.1;;
74483;SDS011;62942;52.462;10.846;2022-12-08T01:23:22;16.9;;;21.9;;
74483;SDS011;62942;52.462;10.846;2022-12-08T01:24:22;17;;;24.4;;
74483;SDS011;62942;52.462;10.846;2022-12-08T01:25:32;17;;;23.4;;
74483;SDS011;62942;52.462;10.846;2022-12-08T01:26:42;17.8;;;25.3;;
74483;SDS011;62942;52.462;10.846;2022-12-08T01:27:52;18.2;;;25.2;;
74483;SDS011;62942;52.462;10.846;2022-12-08T01:29:02;18.4;;;25.6;;
74483;SDS011;62942;52.462;10.846;2022-12-08T01:30:12;18.8;;;26.7;;
74483;SDS011;62942;52.462;10.846;2022-12-08T01:31:22;18.8;;;25.1;;
74483;SDS011;62942;52.462;10.846;2022-12-08T01:32:22;19;;;26.6;;
74483;SDS011;62942;52.462;10.846;2022-12-08T01:33:32;19.7;;;28.5;;
74483;SDS011;62942;52.462;10.846;2022-12-08T01:34:42;20;;;27.3;;
74483;SDS011;62942;52.462;10.846;2022-12-08T01:35:52;20.1;;;28.5;;
74483;SDS011;62942;52.462;10.846;2022-12-08T01:36:52;20.5;;;27.5;;
74483;SDS011;62942;52.462;10.846;2022-12-08T01:37:52;20.3;;;28.4;;
74483;SDS011;62942;52.462;10.846;2022-12-08T01:39:02;21.2;;;31.5;;
74483;SDS011;62942;52.462;10.846;2022-12-08T01:40:12;21.2;;;30.5;;
74483;SDS011;62942;52.462;10.846;2022-12-08T01:41:13;21.7;;;31.8;;
74483;SDS011;62942;52.462;10.846;2022-12-08T01:42:22;21.4;;;31.8;;
74483;SDS011;62942;52.462;10.846;2022-12-08T01:44:48;22.1;;;33.9;;
74483;SDS011;62942;52.462;10.846;2022-12-08T01:45:05;22.1;;;31;;
74483;SDS011;62942;52.462;10.846;2022-12-08T01:45:42;22.6;;;31.2;;
74483;SDS011;62942;52.462;10.846;2022-12-08T01:46:42;22.7;;;32.1;;
74483;SDS011;62942;52.462;10.846;2022-12-08T01:47:52;22.8;;;34.1;;
74483;SDS011;62942;52.462;10.846;2022-12-08T01:49:02;22.4;;;31.8;;
74483;SDS011;62942;52.462;10.846;2022-12-08T01:50:12;23.3;;;32.3;;
74483;SDS011;62942;52.462;10.846;2022-12-08T01:51:12;23.2;;;33.3;;
74483;SDS011;62942;52.462;10.846;2022-12-08T01:52:22;23;;;33.5;;
74483;SDS011;62942;52.462;10.846;2022-12-08T01:53:32;23.3;;;35.4;;
74483;SDS011;62942;52.462;10.846;2022-12-08T01:54:32;23.7;;;33.8;;
74483;SDS011;62942;52.462;10.846;2022-12-08T01:55:42;23.3;;;34.8;;
74483;SDS011;62942;52.462;10.846;2022-12-08T01:56:53;23;;;33.3;;
74483;SDS011;62942;52.462;10.846;2022-12-08T01:58:04;24;;;34.9;;
74483;SDS011;62942;52.462;10.846;2022-12-08T01:59:12;23.1;;;32.2;;
74483;SDS011;62942;52.462;10.846;2022-12-08T02:00:13;23.2;;;33.7;;
74483;SDS011;62942;52.462;10.846;2022-12-08T02:01:12;24.1;;;37.2;;
74483;SDS011;62942;52.462;10.846;2022-12-08T02:02:12;23.9;;;34.2;;
74483;SDS011;62942;52.462;10.846;2022-12-08T02:03:12;23.8;;;35.7;;
74483;SDS011;62942;52.462;10.846;2022-12-08T02:04:12;24.5;;;36.9;;
74483;SDS011;62942;52.462;10.846;2022-12-08T02:05:12;23.6;;;35.1;;
74483;SDS011;62942;52.462;10.846;2022-12-08T02:06:22;23.7;;;33.8;;
74483;SDS011;62942;52.462;10.846;2022-12-08T02:07:32;23.9;;;35.2;;
74483;SDS011;62942;52.462;10.846;2022-12-08T02:08:32;23.8;;;34.8;;
74483;SDS011;62942;52.462;10.846;2022-12-08T02:09:32;24.3;;;35.1;;
74483;SDS011;62942;52.462;10.846;2022-12-08T02:10:33;23.6;;;34.8;;
74483;SDS011;62942;52.462;10.846;2022-12-08T02:11:42;23.8;;;34.6;;
74483;SDS011;62942;52.462;10.846;2022-12-08T02:12:52;23.5;;;33.7;;
74483;SDS011;62942;52.462;10.846;2022-12-08T02:14:02;23.3;;;34.2;;
74483;SDS011;62942;52.462;10.846;2022-12-08T02:15:02;23.2;;;32.6;;
74483;SDS011;62942;52.462;10.846;2022-12-08T02:16:03;23.2;;;35.6;;
74483;SDS011;62942;52.462;10.846;2022-12-08T02:17:15;23.8;;;33.9;;
74483;SDS011;62942;52.462;10.846;2022-12-08T02:18:26;23.4;;;35.3;;
74483;SDS011;62942;52.462;10.846;2022-12-08T02:20:10;23.4;;;33.9;;
74483;SDS011;62942;52.462;10.846;2022-12-08T02:20:44;21.9;;;33.6;;
74483;SDS011;62942;52.462;10.846;2022-12-08T02:21:53;22.8;;;31.6;;
74483;SDS011;62942;52.462;10.846;2022-12-08T02:22:53;22.7;;;34.1;;
74483;SDS011;62942;52.462;10.846;2022-12-08T02:23:53;22.2;;;32.3;;
74483;SDS011;62942;52.462;10.846;2022-12-08T02:25:02;22.5;;;31.8;;
74483;SDS011;62942;52.462;10.846;2022-12-08T02:27:13;21.3;;;31;;
74483;SDS011;62942;52.462;10.846;2022-12-08T02:28:19;21.2;;;31;;
74483;SDS011;62942;52.462;10.846;2022-12-08T02:29:19;21.8;;;29.8;;
74483;SDS011;62942;52.462;10.846;2022-12-08T02:30:22;20.9;;;31.4;;
74483;SDS011;62942;52.462;10.846;2022-12-08T02:31:34;20.3;;;29;;
74483;SDS011;62942;52.462;10.846;2022-12-08T02:32:39;20.2;;;29.4;;
74483;SDS011;62942;52.462;10.846;2022-12-08T02:33:45;20.1;;;27.4;;
74483;SDS011;62942;52.462;10.846;2022-12-08T02:34:42;19.2;;;28.1;;
74483;SDS011;62942;52.462;10.846;2022-12-08T02:35:53;18.6;;;28.2;;
74483;SDS011;62942;52.462;10.846;2022-12-08T02:37:03;18.9;;;26.9;;
74483;SDS011;62942;52.462;10.846;2022-12-08T02:38:14;18.3;;;25;;
74483;SDS011;62942;52.462;10.846;2022-12-08T02:39:15;18.8;;;26.7;;
74483;SDS011;62942;52.462;10.846;2022-12-08T02:40:23;17.7;;;24.8;;
74483;SDS011;62942;52.462;10.846;2022-12-08T02:41:35;17.7;;;23.8;;
74483;SDS011;62942;52.462;10.846;2022-12-08T02:42:43;17.7;;;24.8;;
74483;SDS011;62942;52.462;10.846;2022-12-08T02:43:52;17.2;;;27.3;;
74483;SDS011;62942;52.462;10.846;2022-12-08T02:45:03;16.7;;;24.5;;
74483;SDS011;62942;52.462;10.846;2022-12-08T02:46:02;16.8;;;23.8;;
74483;SDS011;62942;52.462;10.846;2022-12-08T02:47:12;16.1;;;24.4;;
74483;SDS011;62942;52.462;10.846;2022-12-08T02:48:22;16;;;23.4;;
74483;SDS011;62942;52.462;10.846;2022-12-08T02:49:33;15.9;;;24.3;;
74483;SDS011;62942;52.462;10.846;2022-12-08T02:50:32;16.5;;;24.3;;
74483;SDS011;62942;52.462;10.846;2022-12-08T02:51:42;16.2;;;24.6;;
74483;SDS011;62942;52.462;10.846;2022-12-08T02:52:52;16.3;;;22.3;;
74483;SDS011;62942;52.462;10.846;2022-12-08T02:54:02;16.3;;;22.9;;
74483;SDS011;62942;52.462;10.846;2022-12-08T02:55:02;16;;;23.4;;
74483;SDS011;62942;52.462;10.846;2022-12-08T02:56:15;16.1;;;24.1;;
74483;SDS011;62942;52.462;10.846;2022-12-08T02:57:16;16.2;;;24.2;;
74483;SDS011;62942;52.462;10.846;2022-12-08T02:58:29;16.2;;;24.7;;
74483;SDS011;62942;52.462;10.846;2022-12-08T02:59:24;16.6;;;24.5;;
74483;SDS011;62942;52.462;10.846;2022-12-08T03:00:22;16;;;24.9;;
74483;SDS011;62942;52.462;10.846;2022-12-08T03:01:37;16.9;;;26;;
74483;SDS011;62942;52.462;10.846;2022-12-08T03:02:35;16.5;;;25.2;;
74483;SDS011;62942;52.462;10.846;2022-12-08T03:03:43;16.1;;;24;;
74483;SDS011;62942;52.462;10.846;2022-12-08T03:04:52;16.4;;;24.5;;
74483;SDS011;62942;52.462;10.846;2022-12-08T03:06:03;16.3;;;24.3;;
74483;SDS011;62942;52.462;10.846;2022-12-08T03:07:13;16;;;24;;
74483;SDS011;62942;52.462;10.846;2022-12-08T03:08:13;15.8;;;23.1;;
74483;SDS011;62942;52.462;10.846;2022-12-08T03:09:13;16;;;24.3;;
74483;SDS011;62942;52.462;10.846;2022-12-08T03:10:12;15.6;;;22.3;;
74483;SDS011;62942;52.462;10.846;2022-12-08T03:11:13;15.7;;;23.2;;
74483;SDS011;62942;52.462;10.846;2022-12-08T03:12:23;15.1;;;22.4;;
74483;SDS011;62942;52.462;10.846;2022-12-08T03:13:33;14.2;;;22.2;;
74483;SDS011;62942;52.462;10.846;2022-12-08T03:14:32;13.6;;;20.4;;
74483;SDS011;62942;52.462;10.846;2022-12-08T03:15:42;13.1;;;19.4;;
74483;SDS011;62942;52.462;10.846;2022-12-08T03:16:53;13.8;;;20.7;;
74483;SDS011;62942;52.462;10.846;2022-12-08T03:18:02;13.6;;;18.9;;
74483;SDS011;62942;52.462;10.846;2022-12-08T03:19:12;14;;;22.8;;
74483;SDS011;62942;52.462;10.846;2022-12-08T03:20:13;14.2;;;24;;
74483;SDS011;62942;52.462;10.846;2022-12-08T03:21:12;13.4;;;20.8;;
74483;SDS011;62942;52.462;10.846;2022-12-08T03:22:23;13.9;;;21.3;;
74483;SDS011;62942;52.462;10.846;2022-12-08T03:23:21;14.4;;;23.1;;
74483;SDS011;62942;52.462;10.846;2022-12-08T03:24:22;14.1;;;20.5;;
74483;SDS011;62942;52.462;10.846;2022-12-08T03:25:32;13.7;;;20.3;;
74483;SDS011;62942;52.462;10.846;2022-12-08T03:26:42;14.1;;;21.7;;
74483;SDS011;62942;52.462;10.846;2022-12-08T03:27:51;14.3;;;22;;
74483;SDS011;62942;52.462;10.846;2022-12-08T03:29:02;14.2;;;22;;
74483;SDS011;62942;52.462;10.846;2022-12-08T03:30:02;14.3;;;21.6;;
74483;SDS011;62942;52.462;10.846;2022-12-08T03:31:12;13.8;;;21.2;;
74483;SDS011;62942;52.462;10.846;2022-12-08T03:32:12;13.7;;;20.8;;
74483;SDS011;62942;52.462;10.846;2022-12-08T03:33:22;13.9;;;20.9;;
74483;SDS011;62942;52.462;10.846;2022-12-08T03:34:22;13.3;;;20;;
74483;SDS011;62942;52.462;10.846;2022-12-08T03:35:23;13.4;;;19.5;;
74483;SDS011;62942;52.462;10.846;2022-12-08T03:36:32;12.9;;;21.3;;
74483;SDS011;62942;52.462;10.846;2022-12-08T03:37:42;12.9;;;18.9;;
74483;SDS011;62942;52.462;10.846;2022-12-08T03:38:42;13;;;20.8;;
74483;SDS011;62942;52.462;10.846;2022-12-08T03:39:51;13.1;;;19.4;;
74483;SDS011;62942;52.462;10.846;2022-12-08T03:40:51;13.3;;;20.5;;
74483;SDS011;62942;52.462;10.846;2022-12-08T03:42:02;13.3;;;22.9;;
74483;SDS011;62942;52.462;10.846;2022-12-08T03:43:02;13;;;19.1;;
74483;SDS011;62942;52.462;10.846;2022-12-08T03:44:02;13.5;;;22.8;;
74483;SDS011;62942;52.462;10.846;2022-12-08T03:45:11;13.6;;;20.9;;
74483;SDS011;62942;52.462;10.846;2022-12-08T03:46:12;13.1;;;19.7;;
74483;SDS011;62942;52.462;10.846;2022-12-08T03:47:11;13.5;;;20.5;;
74483;SDS011;62942;52.462;10.846;2022-12-08T03:48:21;13.4;;;22.4;;
74483;SDS011;62942;52.462;10.846;2022-12-08T03:49:31;12.9;;;19.8;;
74483;SDS011;62942;52.462;10.846;2022-12-08T03:50:31;13.5;;;21.1;;
74483;SDS011;62942;52.462;10.846;2022-12-08T03:51:42;13.4;;;22;;
74483;SDS011;62942;52.462;10.846;2022-12-08T03:52:51;13.7;;;22.1;;
74483;SDS011;62942;52.462;10.846;2022-12-08T03:53:52;13.1;;;21.6;;
74483;SDS011;62942;52.462;10.846;2022-12-08T03:54:51;13;;;20.5;;
74483;SDS011;62942;52.462;10.846;2022-12-08T03:56:02;12.9;;;19.5;;
74483;SDS011;62942;52.462;10.846;2022-12-08T03:57:01;13;;;20.6;;
74483;SDS011;62942;52.462;10.846;2022-12-08T03:58:01;13.3;;;20.8;;
74483;SDS011;62942;52.462;10.846;2022-12-08T03:59:02;12.9;;;18.6;;
74483;SDS011;62942;52.462;10.846;2022-12-08T04:00:12;12.9;;;19.8;;
74483;SDS011;62942;52.462;10.846;2022-12-08T04:01:11;13;;;19.9;;
74483;SDS011;62942;52.462;10.846;2022-12-08T04:02:21;12.6;;;19.9;;
74483;SDS011;62942;52.462;10.846;2022-12-08T04:03:31;13.3;;;20.7;;
74483;SDS011;62942;52.462;10.846;2022-12-08T04:04:31;13.2;;;22.2;;
74483;SDS011;62942;52.462;10.846;2022-12-08T04:05:41;13.4;;;21;;
74483;SDS011;62942;52.462;10.846;2022-12-08T04:06:51;13.2;;;20.3;;
74483;SDS011;62942;52.462;10.846;2022-12-08T04:08:01;12.9;;;20.3;;
74483;SDS011;62942;52.462;10.846;2022-12-08T04:09:11;14;;;21.6;;
74483;SDS011;62942;52.462;10.846;2022-12-08T04:10:21;13.4;;;20.1;;
74483;SDS011;62942;52.462;10.846;2022-12-08T04:11:21;13.5;;;20.6;;
74483;SDS011;62942;52.462;10.846;2022-12-08T04:12:21;13.5;;;21.8;;
74483;SDS011;62942;52.462;10.846;2022-12-08T04:13:21;13.7;;;21.3;;
74483;SDS011;62942;52.462;10.846;2022-12-08T04:14:31;14.3;;;21.7;;
74483;SDS011;62942;52.462;10.846;2022-12-08T04:15:43;14.2;;;21.4;;
74483;SDS011;62942;52.462;10.846;2022-12-08T04:16:41;13.8;;;20.4;;
74483;SDS011;62942;52.462;10.846;2022-12-08T04:17:51;14;;;20.9;;
74483;SDS011;62942;52.462;10.846;2022-12-08T04:19:01;13.6;;;20.2;;
74483;SDS011;62942;52.462;10.846;2022-12-08T04:20:01;13.3;;;19.9;;
74483;SDS011;62942;52.462;10.846;2022-12-08T04:21:11;14.1;;;22.5;;
74483;SDS011;62942;52.462;10.846;2022-12-08T04:22:11;14;;;22.6;;
74483;SDS011;62942;52.462;10.846;2022-12-08T04:23:11;13.1;;;21.6;;
74483;SDS011;62942;52.462;10.846;2022-12-08T04:24:21;14;;;21.5;;
74483;SDS011;62942;52.462;10.846;2022-12-08T04:25:21;14.8;;;22.4;;
74483;SDS011;62942;52.462;10.846;2022-12-08T04:26:31;15.2;;;22.4;;
74483;SDS011;62942;52.462;10.846;2022-12-08T04:27:31;14.9;;;24.3;;
74483;SDS011;62942;52.462;10.846;2022-12-08T04:28:41;15.2;;;23.3;;
74483;SDS011;62942;52.462;10.846;2022-12-08T04:29:51;15.2;;;23.5;;
74483;SDS011;62942;52.462;10.846;2022-12-08T04:30:51;15.8;;;23.5;;
74483;SDS011;62942;52.462;10.846;2022-12-08T04:32:01;15.6;;;23.5;;
74483;SDS011;62942;52.462;10.846;2022-12-08T04:33:11;15.8;;;26.1;;
74483;SDS011;62942;52.462;10.846;2022-12-08T04:34:21;15.3;;;24.1;;
74483;SDS011;62942;52.462;10.846;2022-12-08T04:35:21;16.1;;;24.3;;
74483;SDS011;62942;52.462;10.846;2022-12-08T04:36:31;16.6;;;27.5;;
74483;SDS011;62942;52.462;10.846;2022-12-08T04:37:31;16.6;;;26.7;;
74483;SDS011;62942;52.462;10.846;2022-12-08T04:38:32;16.2;;;24.5;;
74483;SDS011;62942;52.462;10.846;2022-12-08T04:39:41;16.8;;;28.1;;
74483;SDS011;62942;52.462;10.846;2022-12-08T04:40:51;17.7;;;28.2;;
74483;SDS011;62942;52.462;10.846;2022-12-08T04:41:51;18;;;28.2;;
74483;SDS011;62942;52.462;10.846;2022-12-08T04:43:01;17.3;;;25.9;;
74483;SDS011;62942;52.462;10.846;2022-12-08T04:44:11;15.8;;;23.2;;
74483;SDS011;62942;52.462;10.846;2022-12-08T04:45:21;15.6;;;23.6;;
74483;SDS011;62942;52.462;10.846;2022-12-08T04:46:31;16.6;;;26.5;;
74483;SDS011;62942;52.462;10.846;2022-12-08T04:47:32;15.9;;;26.1;;
74483;SDS011;62942;52.462;10.846;2022-12-08T04:48:41;15.7;;;24.6;;
74483;SDS011;62942;52.462;10.846;2022-12-08T04:49:51;15.6;;;23.3;;
74483;SDS011;62942;52.462;10.846;2022-12-08T04:51:01;15.3;;;24.5;;
74483;SDS011;62942;52.462;10.846;2022-12-08T04:52:11;14.7;;;22.4;;
74483;SDS011;62942;52.462;10.846;2022-12-08T04:53:21;14.4;;;25;;
74483;SDS011;62942;52.462;10.846;2022-12-08T04:54:21;13.5;;;22;;
74483;SDS011;62942;52.462;10.846;2022-12-08T04:55:21;13.8;;;20.1;;
74483;SDS011;62942;52.462;10.846;2022-12-08T04:56:31;14.2;;;20.9;;
74483;SDS011;62942;52.462;10.846;2022-12-08T04:57:41;13.9;;;21.9;;
74483;SDS011;62942;52.462;10.846;2022-12-08T04:58:51;14.2;;;23;;
74483;SDS011;62942;52.462;10.846;2022-12-08T04:59:51;14.3;;;23.8;;
74483;SDS011;62942;52.462;10.846;2022-12-08T05:01:01;14.1;;;20.9;;
74483;SDS011;62942;52.462;10.846;2022-12-08T05:02:11;14.2;;;22.4;;
74483;SDS011;62942;52.462;10.846;2022-12-08T05:03:21;14.8;;;24.3;;
74483;SDS011;62942;52.462;10.846;2022-12-08T05:04:31;15.1;;;25.4;;
74483;SDS011;62942;52.462;10.846;2022-12-08T05:05:42;14.8;;;23.6;;
74483;SDS011;62942;52.462;10.846;2022-12-08T05:06:51;14.5;;;25.4;;
74483;SDS011;62942;52.462;10.846;2022-12-08T05:08:01;14.9;;;22.8;;
74483;SDS011;62942;52.462;10.846;2022-12-08T05:09:02;15.3;;;26.4;;
74483;SDS011;62942;52.462;10.846;2022-12-08T05:10:11;15.2;;;27.2;;
74483;SDS011;62942;52.462;10.846;2022-12-08T05:11:12;15.9;;;26;;
74483;SDS011;62942;52.462;10.846;2022-12-08T05:12:21;16.4;;;26.7;;
74483;SDS011;62942;52.462;10.846;2022-12-08T05:13:21;15.5;;;25.4;;
74483;SDS011;62942;52.462;10.846;2022-12-08T05:14:31;15.4;;;24.2;;
74483;SDS011;62942;52.462;10.846;2022-12-08T05:15:41;15.4;;;23.2;;
74483;SDS011;62942;52.462;10.846;2022-12-08T05:16:51;17.2;;;27.5;;
74483;SDS011;62942;52.462;10.846;2022-12-08T05:18:03;16.7;;;26.8;;
74483;SDS011;62942;52.462;10.846;2022-12-08T05:19:11;15.5;;;24.9;;
74483;SDS011;62942;52.462;10.846;2022-12-08T05:20:21;16.2;;;26;;
74483;SDS011;62942;52.462;10.846;2022-12-08T05:21:31;16.1;;;28;;
74483;SDS011;62942;52.462;10.846;2022-12-08T05:22:31;16.5;;;26;;
74483;SDS011;62942;52.462;10.846;2022-12-08T05:23:41;16.1;;;25.9;;
74483;SDS011;62942;52.462;10.846;2022-12-08T05:24:41;16.2;;;28.9;;
74483;SDS011;62942;52.462;10.846;2022-12-08T05:25:51;17;;;28.8;;
74483;SDS011;62942;52.462;10.846;2022-12-08T05:27:01;16.5;;;27;;
74483;SDS011;62942;52.462;10.846;2022-12-08T05:28:01;17.4;;;28.8;;
74483;SDS011;62942;52.462;10.846;2022-12-08T05:29:11;18.6;;;30.2;;
74483;SDS011;62942;52.462;10.846;2022-12-08T05:30:11;19.3;;;31.1;;
74483;SDS011;62942;52.462;10.846;2022-12-08T05:31:12;18.9;;;30.2;;
74483;SDS011;62942;52.462;10.846;2022-12-08T05:32:21;17.7;;;30.9;;
74483;SDS011;62942;52.462;10.846;2022-12-08T05:33:21;18.1;;;29.8;;
74483;SDS011;62942;52.462;10.846;2022-12-08T05:34:31;18.7;;;31.2;;
74483;SDS011;62942;52.462;10.846;2022-12-08T05:35:41;19.4;;;31.4;;
74483;SDS011;62942;52.462;10.846;2022-12-08T05:36:51;16.7;;;27.5;;
74483;SDS011;62942;52.462;10.846;2022-12-08T05:38:01;18.2;;;30.5;;
74483;SDS011;62942;52.462;10.846;2022-12-08T05:39:01;18.5;;;28.8;;
74483;SDS011;62942;52.462;10.846;2022-12-08T05:40:11;17.8;;;29.1;;
74483;SDS011;62942;52.462;10.846;2022-12-08T05:41:12;17.2;;;28.8;;
74483;SDS011;62942;52.462;10.846;2022-12-08T05:42:21;17.7;;;28.6;;
74483;SDS011;62942;52.462;10.846;2022-12-08T05:43:31;17.7;;;28.9;;
74483;SDS011;62942;52.462;10.846;2022-12-08T05:44:41;17.7;;;28.4;;
74483;SDS011;62942;52.462;10.846;2022-12-08T05:45:51;18.7;;;29;;
74483;SDS011;62942;52.462;10.846;2022-12-08T05:46:51;18.4;;;31.5;;
74483;SDS011;62942;52.462;10.846;2022-12-08T05:48:01;18.6;;;28.5;;
74483;SDS011;62942;52.462;10.846;2022-12-08T05:49:11;18.1;;;29.9;;
74483;SDS011;62942;52.462;10.846;2022-12-08T05:50:11;17.4;;;27.1;;
74483;SDS011;62942;52.462;10.846;2022-12-08T05:51:22;17.3;;;27.6;;
74483;SDS011;62942;52.462;10.846;2022-12-08T05:52:21;17.1;;;26.6;;
74483;SDS011;62942;52.462;10.846;2022-12-08T05:53:31;16;;;27;;
74483;SDS011;62942;52.462;10.846;2022-12-08T05:54:31;16.1;;;25.8;;
74483;SDS011;62942;52.462;10.846;2022-12-08T05:55:41;14.1;;;22.5;;
74483;SDS011;62942;52.462;10.846;2022-12-08T05:56:51;14.4;;;23.5;;
74483;SDS011;62942;52.462;10.846;2022-12-08T05:58:01;14.7;;;24;;
74483;SDS011;62942;52.462;10.846;2022-12-08T05:59:03;15.4;;;24.6;;
74483;SDS011;62942;52.462;10.846;2022-12-08T06:00:12;14.1;;;20.8;;
74483;SDS011;62942;52.462;10.846;2022-12-08T06:01:21;13.5;;;21.6;;
74483;SDS011;62942;52.462;10.846;2022-12-08T06:02:21;13.7;;;23;;
74483;SDS011;62942;52.462;10.846;2022-12-08T06:03:31;14.4;;;22.1;;
74483;SDS011;62942;52.462;10.846;2022-12-08T06:04:41;14;;;21.5;;
74483;SDS011;62942;52.462;10.846;2022-12-08T06:05:42;13.8;;;21.6;;
74483;SDS011;62942;52.462;10.846;2022-12-08T06:06:51;13.9;;;23.2;;
74483;SDS011;62942;52.462;10.846;2022-12-08T06:08:01;13.8;;;21.9;;
74483;SDS011;62942;52.462;10.846;2022-12-08T06:09:11;13.5;;;23.9;;
74483;SDS011;62942;52.462;10.846;2022-12-08T06:10:11;14.1;;;23.4;;
74483;SDS011;62942;52.462;10.846;2022-12-08T06:11:16;13.7;;;21.6;;
74483;SDS011;62942;52.462;10.846;2022-12-08T06:12:21;14;;;22.5;;
74483;SDS011;62942;52.462;10.846;2022-12-08T06:13:21;14.2;;;24.2;;
74483;SDS011;62942;52.462;10.846;2022-12-08T06:14:21;13.4;;;19.7;;
74483;SDS011;62942;52.462;10.846;2022-12-08T06:15:32;14;;;22.6;;
74483;SDS011;62942;52.462;10.846;2022-12-08T06:16:31;14.4;;;22.8;;
74483;SDS011;62942;52.462;10.846;2022-12-08T06:17:31;14.7;;;23.1;;
74483;SDS011;62942;52.462;10.846;2022-12-08T06:18:41;14.2;;;22.7;;
74483;SDS011;62942;52.462;10.846;2022-12-08T06:19:51;14.4;;;23.6;;
74483;SDS011;62942;52.462;10.846;2022-12-08T06:20:51;14.2;;;22.4;;
74483;SDS011;62942;52.462;10.846;2022-12-08T06:22:01;13.8;;;20.3;;
74483;SDS011;62942;52.462;10.846;2022-12-08T06:23:11;13.6;;;20.4;;
74483;SDS011;62942;52.462;10.846;2022-12-08T06:24:11;13.4;;;22.1;;
74483;SDS011;62942;52.462;10.846;2022-12-08T06:25:21;13.3;;;22;;
74483;SDS011;62942;52.462;10.846;2022-12-08T06:26:31;13.1;;;19.9;;
74483;SDS011;62942;52.462;10.846;2022-12-08T06:27:31;13.4;;;20.8;;
74483;SDS011;62942;52.462;10.846;2022-12-08T06:28:41;13.6;;;20.6;;
74483;SDS011;62942;52.462;10.846;2022-12-08T06:29:41;14.3;;;24.7;;
74483;SDS011;62942;52.462;10.846;2022-12-08T06:30:41;13.9;;;22.1;;
74483;SDS011;62942;52.462;10.846;2022-12-08T06:31:51;13.5;;;22.2;;
74483;SDS011;62942;52.462;10.846;2022-12-08T06:33:01;13.9;;;20.7;;
74483;SDS011;62942;52.462;10.846;2022-12-08T06:34:11;14;;;22.3;;
74483;SDS011;62942;52.462;10.846;2022-12-08T06:35:11;13.5;;;20.7;;
74483;SDS011;62942;52.462;10.846;2022-12-08T06:36:22;14.1;;;21.2;;